Relevés horaires Beauvechain (Belgique)


Relevés horaires à Beauvechain - Mardi 23 Avr. 2019
Heure UTC1 Température [°C] Vent [km/h] Hum. [%] Pres.4 [hPa] Visi. [Km] Nébu. [octa] Préc.5 [mm] Cond.
2m. Res. Ros. Dir.2 Vit. Moy. Raf.3
23:00 15.6 15.6 8.3 S 3.7 -- 5.6 62 996.8(0.2/3h) 20 -- -- --
22:00 15.4 15.4 7.8 SSE 3.7 -- 3.7 60 996.8(0.5/3h) 20 -- -- --
21:00 15.7 15.7 7.7 NNO 1.9 -- 7.4 59 996.6(0.7/3h) 20 6/8 -- --
20:00 16.5 16.5 7.5 SE 3.7 -- 5.6 55 996.5(0.6/3h) 20 6/8 -- --
19:00 17.4 17.4 7.6 SE 3.7 -- 7.4 53 996.1(0.2/3h) 20 6/8 -- --
18:00 17.7 17.7 8.4 ENE 5.6 -- 16.7 54 995.8(-0.1/3h) 20 6/8 -- --
17:00 18.3 18.3 8.2 ENE 5.6 -- 13.0 52 995.8(-0.5/3h) 20 -- -- --
16:00 19.1 19.1 8.0 ENE 7.4 -- 13.0 49 995.8(-0.9/3h) 20 6/8 -- --
15:00 19.7 19.7 7.4 ENE 7.4 -- 16.7 45 995.8(-1.1/3h) 20 6/8 -- --
14:00 19.3 19.3 7.0 E 11.1 -- 16.7 45 996.3(-0.9/3h) 20 6/8 -- --
13:00 18.8 18.8 6.2 E 9.3 -- 16.7 44 996.8(-1.0/3h) 20 6/8 -- --
12:00 18.1 18.1 6.5 ENE 9.3 -- 14.8 47 997.1(-1.2/3h) 20 6/8 -- --
11:00 16.9 16.9 5.9 ENE 9.3 -- 13.0 48 997.4(-1.2/3h) 20 6/8 -- --
10:00 16.4 16.4 5.5 ENE 7.4 -- 11.1 48 998(-0.7/3h) 20 6/8 -- --
09:00 14.5 14.5 4.7 E 5.6 -- 13.0 52 998.6(-0.5/3h) 20 6/8 -- --
08:00 12.3 11.8 4.3 E 7.4 -- 13.0 58 999(-0.7/3h) 20 6/8 -- --
07:00 10.8 10.5 3.8 ENE 5.6 -- 7.4 62 999(-1.0/3h) 20 6/8 -- --
06:00 9.8 9.8 3.0 ENE 3.7 -- 11.1 63 999.5(-0.9/3h) 20 6/8 -- --
05:00 9.8 9.4 2.5 ENE 5.6 -- 7.4 60 999.9(-1.0/3h) 20 -- -- --
04:00 11.1 10.8 1.8 ENE 5.6 -- 9.3 53 1000(-1.3/3h) 20 -- -- --
03:00 11.8 11.6 2.0 ENE 5.6 -- 11.1 51 1000.3(-1.5/3h) 20 -- -- --
02:00 12.3 11.8 2.1 ENE 7.4 -- 11.1 50 1000.8(-1.1/3h) 20 -- -- --
01:00 13.3 13.3 2.6 ENE 5.6 -- 9.3 48 1001.2(-1.1/3h) 20 -- -- --
00:00 14.2 14.2 3.2 E 3.7 -- 11.1 47 1001.7(-1.1/3h) 20 -- -- --

1 Coordinated Universal Time. Actuellement il est 17:00 locale et 16:00 UTC.

2 Le vent souffle depuis la direction indiquée vers la direction oposée.

3 Les rafales max. sont disponible 40 min après l'heure du relevé.

4 Pour les stations d'altitude (plus de 600m) le géopotentiel du niveau le plus proche de la pression obligatoire est indiqué.

5 Les stations disposant d'un diffuseur peuvent indiquer "trace". Cela signifie que des précipitations ont touchés le sol mais que la quantité est inférieure à 0.1 mm.

Récapitulatif de la journée
Température [°C] Vent [km/h] Ensoleillement4 [h] Precipitations totale5 [mm] Pression [Hpa]
Min1 Max.2 Moy.3 Max. Min Max.
9.6 20.2 0 16.7 0 h 0 min 0 995.8 1001.7

1 Température minimale relevée entre 18:00 UTC la veille et 18:00 UTC le jour donné.

2 Température maximale relevée entre 06:00 UTC le jour donné et 06:00 UTC le lendemain.

3 Vent moyen de la journée basé sur les relevés horaires.

4 Ensoleillement en heures relevé entre 06:00 UTC la veille et 06:00 UTC le jour donné.

5 Précipitations totales tombées entre 06:00 UTC la jour donné et 06:00 UTC le lendemain.

Graphiques horaires